Annabella, Utah
Current Conditions -  °F | °C
As of 2:55 PM on Monday 22 Dec 2014 (Local Time) from KDTA Reporting Station
Broken Clouds Broken Clouds  
Wind Chill: 35°   Ceiling: 8000
Heat Index: 44°   Visibility: 10mi
Dew Point: 37°   Wind: 23mph
Humidity: 76%   Direction: 350°N
Pressure: 30.02"   Gusts: 29mph
Location:  38.71°N, 112.06°W
Report Text: KDTA 222155Z AUTO 35020G25KT 10SM SCT050 SCT070 BKN080 07/03 A3002 RMK AO1 T00680029
Loading
Personal Weather Stations






























Interactive Weather Map New forecast layout! Learn more

10-Day Weather Forecast

Advertisements
Track Severe Weather on mobile